sensor_id;sensor_type;location;lat;lon;timestamp;temperature;humidity
573;DHT22;271;51.114;13.780;2024-03-29T00:00:59;8.20;1.00
573;DHT22;271;51.114;13.780;2024-03-29T00:03:46;8.20;1.00
573;DHT22;271;51.114;13.780;2024-03-29T00:06:33;8.10;1.00
573;DHT22;271;51.114;13.780;2024-03-29T00:09:21;8.10;1.00
573;DHT22;271;51.114;13.780;2024-03-29T00:12:08;8.10;1.00
573;DHT22;271;51.114;13.780;2024-03-29T00:14:54;8.10;1.00
573;DHT22;271;51.114;13.780;2024-03-29T00:17:42;8.10;1.00
573;DHT22;271;51.114;13.780;2024-03-29T00:20:28;8.00;1.00
573;DHT22;271;51.114;13.780;2024-03-29T00:23:15;8.10;1.00
573;DHT22;271;51.114;13.780;2024-03-29T00:26:03;8.00;1.00
573;DHT22;271;51.114;13.780;2024-03-29T00:28:50;7.80;1.00
573;DHT22;271;51.114;13.780;2024-03-29T00:31:37;7.90;1.00
573;DHT22;271;51.114;13.780;2024-03-29T00:34:23;7.80;1.00
573;DHT22;271;51.114;13.780;2024-03-29T00:37:10;7.80;1.00
573;DHT22;271;51.114;13.780;2024-03-29T00:39:57;7.80;1.00
573;DHT22;271;51.114;13.780;2024-03-29T00:42:45;7.90;1.00
573;DHT22;271;51.114;13.780;2024-03-29T00:45:32;7.80;1.00
573;DHT22;271;51.114;13.780;2024-03-29T00:48:18;7.80;1.00
573;DHT22;271;51.114;13.780;2024-03-29T00:51:05;7.80;1.00
573;DHT22;271;51.114;13.780;2024-03-29T00:53:52;7.90;1.00
573;DHT22;271;51.114;13.780;2024-03-29T00:56:38;7.90;1.00
573;DHT22;271;51.114;13.780;2024-03-29T00:59:27;7.90;1.00
573;DHT22;271;51.114;13.780;2024-03-29T01:02:13;8.00;1.00
573;DHT22;271;51.114;13.780;2024-03-29T01:05:00;8.00;1.00
573;DHT22;271;51.114;13.780;2024-03-29T01:07:47;8.00;1.00
573;DHT22;271;51.114;13.780;2024-03-29T01:10:34;7.90;1.00
573;DHT22;271;51.114;13.780;2024-03-29T01:13:20;8.00;1.00
573;DHT22;271;51.114;13.780;2024-03-29T01:16:09;8.00;1.00
573;DHT22;271;51.114;13.780;2024-03-29T01:18:56;7.90;1.00
573;DHT22;271;51.114;13.780;2024-03-29T01:21:43;7.90;1.00
573;DHT22;271;51.114;13.780;2024-03-29T01:24:30;7.80;1.00
573;DHT22;271;51.114;13.780;2024-03-29T01:27:16;8.00;1.00
573;DHT22;271;51.114;13.780;2024-03-29T01:30:04;7.70;1.00
573;DHT22;271;51.114;13.780;2024-03-29T01:32:52;8.00;1.00
573;DHT22;271;51.114;13.780;2024-03-29T01:35:39;8.00;1.00
573;DHT22;271;51.114;13.780;2024-03-29T01:38:26;8.10;1.00
573;DHT22;271;51.114;13.780;2024-03-29T01:41:13;8.10;1.00
573;DHT22;271;51.114;13.780;2024-03-29T01:43:59;8.10;1.00
573;DHT22;271;51.114;13.780;2024-03-29T01:46:47;8.10;1.00
573;DHT22;271;51.114;13.780;2024-03-29T01:49:36;8.10;1.00
573;DHT22;271;51.114;13.780;2024-03-29T01:52:24;8.10;1.00
573;DHT22;271;51.114;13.780;2024-03-29T01:55:12;8.20;1.00
573;DHT22;271;51.114;13.780;2024-03-29T01:58:00;8.10;1.00
573;DHT22;271;51.114;13.780;2024-03-29T02:00:51;8.10;1.00
573;DHT22;271;51.114;13.780;2024-03-29T02:03:39;8.10;1.00
573;DHT22;271;51.114;13.780;2024-03-29T02:06:30;8.10;1.00
573;DHT22;271;51.114;13.780;2024-03-29T02:09:18;8.10;1.00
573;DHT22;271;51.114;13.780;2024-03-29T02:12:06;8.10;1.00
573;DHT22;271;51.114;13.780;2024-03-29T02:14:54;8.10;1.00
573;DHT22;271;51.114;13.780;2024-03-29T02:17:42;8.00;1.00
573;DHT22;271;51.114;13.780;2024-03-29T02:20:30;8.00;1.00
573;DHT22;271;51.114;13.780;2024-03-29T02:23:26;8.00;1.00
573;DHT22;271;51.114;13.780;2024-03-29T02:26:16;8.10;1.00
573;DHT22;271;51.114;13.780;2024-03-29T02:29:04;8.00;1.00
573;DHT22;271;51.114;13.780;2024-03-29T02:31:52;8.10;1.00
573;DHT22;271;51.114;13.780;2024-03-29T02:34:40;8.10;1.00
573;DHT22;271;51.114;13.780;2024-03-29T02:37:27;8.10;1.00
573;DHT22;271;51.114;13.780;2024-03-29T02:40:15;8.10;1.00
573;DHT22;271;51.114;13.780;2024-03-29T02:43:05;8.10;1.00
573;DHT22;271;51.114;13.780;2024-03-29T02:45:52;8.10;1.00
573;DHT22;271;51.114;13.780;2024-03-29T02:48:40;8.10;1.00
573;DHT22;271;51.114;13.780;2024-03-29T02:51:29;8.10;1.00
573;DHT22;271;51.114;13.780;2024-03-29T02:54:15;8.00;1.00
573;DHT22;271;51.114;13.780;2024-03-29T02:57:04;8.10;1.00
573;DHT22;271;51.114;13.780;2024-03-29T02:59:52;8.10;1.00
573;DHT22;271;51.114;13.780;2024-03-29T03:02:40;8.00;1.00
573;DHT22;271;51.114;13.780;2024-03-29T03:05:27;8.00;1.00
573;DHT22;271;51.114;13.780;2024-03-29T03:08:14;8.00;1.00
573;DHT22;271;51.114;13.780;2024-03-29T03:11:19;8.00;1.00
573;DHT22;271;51.114;13.780;2024-03-29T03:14:07;8.10;1.00
573;DHT22;271;51.114;13.780;2024-03-29T03:16:56;8.10;1.00
573;DHT22;271;51.114;13.780;2024-03-29T03:19:44;8.20;1.00
573;DHT22;271;51.114;13.780;2024-03-29T03:22:30;8.10;1.00
573;DHT22;271;51.114;13.780;2024-03-29T03:25:18;8.10;1.00
573;DHT22;271;51.114;13.780;2024-03-29T03:28:05;8.10;1.00
573;DHT22;271;51.114;13.780;2024-03-29T03:30:53;8.10;1.00
573;DHT22;271;51.114;13.780;2024-03-29T03:33:41;8.10;1.00
573;DHT22;271;51.114;13.780;2024-03-29T03:36:29;8.10;1.00
573;DHT22;271;51.114;13.780;2024-03-29T03:39:16;8.10;1.00
573;DHT22;271;51.114;13.780;2024-03-29T03:42:04;8.10;1.00
573;DHT22;271;51.114;13.780;2024-03-29T03:44:51;8.10;1.00
573;DHT22;271;51.114;13.780;2024-03-29T03:47:39;8.00;1.00
573;DHT22;271;51.114;13.780;2024-03-29T03:50:27;8.00;1.00
573;DHT22;271;51.114;13.780;2024-03-29T03:53:14;7.90;1.00
573;DHT22;271;51.114;13.780;2024-03-29T03:56:01;7.80;1.00
573;DHT22;271;51.114;13.780;2024-03-29T03:58:49;7.60;1.00
573;DHT22;271;51.114;13.780;2024-03-29T04:01:36;7.60;1.00
573;DHT22;271;51.114;13.780;2024-03-29T04:04:24;7.40;1.00
573;DHT22;271;51.114;13.780;2024-03-29T04:07:12;7.30;1.00
573;DHT22;271;51.114;13.780;2024-03-29T04:09:59;7.20;1.00
573;DHT22;271;51.114;13.780;2024-03-29T04:12:46;7.20;1.00
573;DHT22;271;51.114;13.780;2024-03-29T04:15:34;7.20;1.00
573;DHT22;271;51.114;13.780;2024-03-29T04:18:21;7.20;1.00
573;DHT22;271;51.114;13.780;2024-03-29T04:21:08;7.30;1.00
573;DHT22;271;51.114;13.780;2024-03-29T04:23:56;7.30;1.00
573;DHT22;271;51.114;13.780;2024-03-29T04:26:44;7.30;1.00
573;DHT22;271;51.114;13.780;2024-03-29T04:29:31;7.40;1.00
573;DHT22;271;51.114;13.780;2024-03-29T04:32:19;7.40;1.00
573;DHT22;271;51.114;13.780;2024-03-29T04:35:06;7.40;1.00
573;DHT22;271;51.114;13.780;2024-03-29T04:37:54;7.50;1.00
573;DHT22;271;51.114;13.780;2024-03-29T04:40:43;7.50;1.00
573;DHT22;271;51.114;13.780;2024-03-29T04:43:31;7.60;1.00
573;DHT22;271;51.114;13.780;2024-03-29T04:46:19;7.60;1.00
573;DHT22;271;51.114;13.780;2024-03-29T04:49:06;7.60;1.00
573;DHT22;271;51.114;13.780;2024-03-29T04:51:54;7.60;1.00
573;DHT22;271;51.114;13.780;2024-03-29T04:54:41;7.60;1.00
573;DHT22;271;51.114;13.780;2024-03-29T04:57:31;7.60;1.00
573;DHT22;271;51.114;13.780;2024-03-29T05:00:19;7.60;1.00
573;DHT22;271;51.114;13.780;2024-03-29T05:03:07;7.60;1.00
573;DHT22;271;51.114;13.780;2024-03-29T05:05:55;7.60;1.00
573;DHT22;271;51.114;13.780;2024-03-29T05:08:43;7.60;1.00
573;DHT22;271;51.114;13.780;2024-03-29T05:11:31;7.60;1.00
573;DHT22;271;51.114;13.780;2024-03-29T05:14:21;7.60;1.00
573;DHT22;271;51.114;13.780;2024-03-29T05:17:08;7.80;1.00
573;DHT22;271;51.114;13.780;2024-03-29T05:19:56;7.80;1.00
573;DHT22;271;51.114;13.780;2024-03-29T05:22:44;8.00;1.00
573;DHT22;271;51.114;13.780;2024-03-29T05:25:31;8.10;1.00
573;DHT22;271;51.114;13.780;2024-03-29T05:28:19;8.20;1.00
573;DHT22;271;51.114;13.780;2024-03-29T05:31:13;8.30;1.00
573;DHT22;271;51.114;13.780;2024-03-29T05:34:01;8.40;1.00
573;DHT22;271;51.114;13.780;2024-03-29T05:36:49;8.40;1.00
573;DHT22;271;51.114;13.780;2024-03-29T05:39:36;8.50;1.00
573;DHT22;271;51.114;13.780;2024-03-29T05:42:25;8.50;1.00
573;DHT22;271;51.114;13.780;2024-03-29T05:45:23;8.60;1.00
573;DHT22;271;51.114;13.780;2024-03-29T05:48:13;8.60;1.00
573;DHT22;271;51.114;13.780;2024-03-29T05:51:01;8.50;1.00
573;DHT22;271;51.114;13.780;2024-03-29T05:53:49;8.50;1.00
573;DHT22;271;51.114;13.780;2024-03-29T05:56:37;8.60;1.00
573;DHT22;271;51.114;13.780;2024-03-29T05:59:25;8.60;1.00
573;DHT22;271;51.114;13.780;2024-03-29T06:02:12;8.70;1.00
573;DHT22;271;51.114;13.780;2024-03-29T06:05:01;8.70;1.00
573;DHT22;271;51.114;13.780;2024-03-29T06:07:50;8.70;1.00
573;DHT22;271;51.114;13.780;2024-03-29T06:10:37;8.80;1.00
573;DHT22;271;51.114;13.780;2024-03-29T06:13:25;8.80;1.00
573;DHT22;271;51.114;13.780;2024-03-29T06:16:37;8.80;1.00
573;DHT22;271;51.114;13.780;2024-03-29T06:19:42;8.80;1.00
573;DHT22;271;51.114;13.780;2024-03-29T06:22:31;8.90;1.00
573;DHT22;271;51.114;13.780;2024-03-29T06:25:19;8.90;1.00
573;DHT22;271;51.114;13.780;2024-03-29T06:28:07;8.90;1.00
573;DHT22;271;51.114;13.780;2024-03-29T06:31:06;9.00;1.00
573;DHT22;271;51.114;13.780;2024-03-29T06:33:54;9.00;1.00
573;DHT22;271;51.114;13.780;2024-03-29T06:36:44;9.10;1.00
573;DHT22;271;51.114;13.780;2024-03-29T06:39:34;9.10;1.00
573;DHT22;271;51.114;13.780;2024-03-29T06:42:22;9.00;1.00
573;DHT22;271;51.114;13.780;2024-03-29T06:45:10;9.10;1.00
573;DHT22;271;51.114;13.780;2024-03-29T06:48:01;9.10;1.00
573;DHT22;271;51.114;13.780;2024-03-29T06:50:49;9.10;1.00
573;DHT22;271;51.114;13.780;2024-03-29T06:53:40;9.10;1.00
573;DHT22;271;51.114;13.780;2024-03-29T06:56:29;9.20;1.00
573;DHT22;271;51.114;13.780;2024-03-29T06:59:16;9.20;1.00
573;DHT22;271;51.114;13.780;2024-03-29T07:02:04;9.30;1.00
573;DHT22;271;51.114;13.780;2024-03-29T07:04:55;9.30;1.00
573;DHT22;271;51.114;13.780;2024-03-29T07:07:43;9.30;1.00
573;DHT22;271;51.114;13.780;2024-03-29T07:10:33;9.30;1.00
573;DHT22;271;51.114;13.780;2024-03-29T07:13:22;9.40;1.00
573;DHT22;271;51.114;13.780;2024-03-29T07:16:10;9.40;1.00
573;DHT22;271;51.114;13.780;2024-03-29T07:18:57;9.30;1.00
573;DHT22;271;51.114;13.780;2024-03-29T07:21:49;9.40;1.00
573;DHT22;271;51.114;13.780;2024-03-29T07:24:40;9.50;1.00
573;DHT22;271;51.114;13.780;2024-03-29T07:27:27;9.50;1.00
573;DHT22;271;51.114;13.780;2024-03-29T07:30:20;9.50;1.00
573;DHT22;271;51.114;13.780;2024-03-29T07:33:08;9.50;1.00
573;DHT22;271;51.114;13.780;2024-03-29T07:35:56;9.60;1.00
573;DHT22;271;51.114;13.780;2024-03-29T07:38:44;9.60;1.00
573;DHT22;271;51.114;13.780;2024-03-29T07:41:32;9.60;1.00
573;DHT22;271;51.114;13.780;2024-03-29T07:44:21;9.60;1.00
573;DHT22;271;51.114;13.780;2024-03-29T07:47:10;9.70;1.00
573;DHT22;271;51.114;13.780;2024-03-29T07:49:59;9.70;1.00
573;DHT22;271;51.114;13.780;2024-03-29T07:52:48;9.70;1.00
573;DHT22;271;51.114;13.780;2024-03-29T07:55:37;9.70;1.00
573;DHT22;271;51.114;13.780;2024-03-29T07:58:26;9.80;1.00
573;DHT22;271;51.114;13.780;2024-03-29T08:01:18;9.90;1.00
573;DHT22;271;51.114;13.780;2024-03-29T08:04:07;10.00;1.00
573;DHT22;271;51.114;13.780;2024-03-29T08:06:55;10.00;1.00
573;DHT22;271;51.114;13.780;2024-03-29T08:09:43;10.20;1.00
573;DHT22;271;51.114;13.780;2024-03-29T08:12:31;10.30;1.00
573;DHT22;271;51.114;13.780;2024-03-29T08:15:19;10.40;1.00
573;DHT22;271;51.114;13.780;2024-03-29T08:18:07;10.50;1.00
573;DHT22;271;51.114;13.780;2024-03-29T08:20:56;10.60;1.00
573;DHT22;271;51.114;13.780;2024-03-29T08:23:44;10.60;1.00
573;DHT22;271;51.114;13.780;2024-03-29T08:26:34;10.70;1.00
573;DHT22;271;51.114;13.780;2024-03-29T08:29:22;11.00;1.00
573;DHT22;271;51.114;13.780;2024-03-29T08:32:09;10.80;1.00
573;DHT22;271;51.114;13.780;2024-03-29T08:35:00;10.90;1.00
573;DHT22;271;51.114;13.780;2024-03-29T08:37:50;10.90;1.00
573;DHT22;271;51.114;13.780;2024-03-29T08:40:41;11.00;1.00
573;DHT22;271;51.114;13.780;2024-03-29T08:43:30;11.10;1.00
573;DHT22;271;51.114;13.780;2024-03-29T08:46:17;11.10;1.00
573;DHT22;271;51.114;13.780;2024-03-29T08:49:05;11.10;1.00
573;DHT22;271;51.114;13.780;2024-03-29T08:51:53;11.20;1.00
573;DHT22;271;51.114;13.780;2024-03-29T08:54:42;11.20;1.00
573;DHT22;271;51.114;13.780;2024-03-29T08:57:33;11.20;1.00
573;DHT22;271;51.114;13.780;2024-03-29T09:00:21;11.10;1.00
573;DHT22;271;51.114;13.780;2024-03-29T09:03:10;11.20;1.00
573;DHT22;271;51.114;13.780;2024-03-29T09:05:58;11.30;1.00
573;DHT22;271;51.114;13.780;2024-03-29T09:08:48;11.40;1.00
573;DHT22;271;51.114;13.780;2024-03-29T09:11:37;11.60;1.00
573;DHT22;271;51.114;13.780;2024-03-29T09:14:27;11.90;1.00
573;DHT22;271;51.114;13.780;2024-03-29T09:17:14;12.20;1.00
573;DHT22;271;51.114;13.780;2024-03-29T09:20:05;12.70;1.00
573;DHT22;271;51.114;13.780;2024-03-29T09:22:53;13.00;1.00
573;DHT22;271;51.114;13.780;2024-03-29T09:25:42;13.20;1.00
573;DHT22;271;51.114;13.780;2024-03-29T09:28:31;13.40;1.00
573;DHT22;271;51.114;13.780;2024-03-29T09:31:20;13.60;1.00
573;DHT22;271;51.114;13.780;2024-03-29T09:34:08;13.70;1.00
573;DHT22;271;51.114;13.780;2024-03-29T09:36:59;13.90;1.00
573;DHT22;271;51.114;13.780;2024-03-29T09:39:47;14.00;1.00
573;DHT22;271;51.114;13.780;2024-03-29T09:42:39;14.10;1.00
573;DHT22;271;51.114;13.780;2024-03-29T09:45:29;14.10;1.00
573;DHT22;271;51.114;13.780;2024-03-29T09:48:23;14.30;1.00
573;DHT22;271;51.114;13.780;2024-03-29T09:57:41;14.50;1.00
573;DHT22;271;51.114;13.780;2024-03-29T10:36:09;14.20;1.00
573;DHT22;271;51.114;13.780;2024-03-29T10:46:07;14.60;1.00
573;DHT22;271;51.114;13.780;2024-03-29T10:49:07;14.70;1.00
573;DHT22;271;51.114;13.780;2024-03-29T10:51:59;14.90;1.00
573;DHT22;271;51.114;13.780;2024-03-29T10:54:50;15.00;1.00
573;DHT22;271;51.114;13.780;2024-03-29T10:57:45;15.10;1.00
573;DHT22;271;51.114;13.780;2024-03-29T11:00:38;15.20;1.00
573;DHT22;271;51.114;13.780;2024-03-29T11:03:45;15.10;1.00
573;DHT22;271;51.114;13.780;2024-03-29T11:06:36;15.20;1.00
573;DHT22;271;51.114;13.780;2024-03-29T11:09:30;15.30;1.00
573;DHT22;271;51.114;13.780;2024-03-29T11:12:20;15.40;1.00
573;DHT22;271;51.114;13.780;2024-03-29T11:15:15;15.40;1.00
573;DHT22;271;51.114;13.780;2024-03-29T11:18:06;15.40;1.00
573;DHT22;271;51.114;13.780;2024-03-29T11:21:46;15.40;1.00
573;DHT22;271;51.114;13.780;2024-03-29T11:28:33;15.00;1.00
573;DHT22;271;51.114;13.780;2024-03-29T11:31:24;14.90;1.00
573;DHT22;271;51.114;13.780;2024-03-29T11:34:12;15.10;1.00
573;DHT22;271;51.114;13.780;2024-03-29T11:37:11;15.00;1.00
573;DHT22;271;51.114;13.780;2024-03-29T11:40:11;15.20;1.00
573;DHT22;271;51.114;13.780;2024-03-29T11:43:08;15.30;1.00
573;DHT22;271;51.114;13.780;2024-03-29T11:45:58;15.30;1.00
573;DHT22;271;51.114;13.780;2024-03-29T11:48:47;15.30;1.00
573;DHT22;271;51.114;13.780;2024-03-29T11:51:36;15.40;1.00
573;DHT22;271;51.114;13.780;2024-03-29T11:54:24;15.40;1.00
573;DHT22;271;51.114;13.780;2024-03-29T11:57:12;15.50;1.00
573;DHT22;271;51.114;13.780;2024-03-29T12:00:06;15.50;1.00
573;DHT22;271;51.114;13.780;2024-03-29T12:03:02;15.50;1.00
573;DHT22;271;51.114;13.780;2024-03-29T12:05:51;15.50;1.00
573;DHT22;271;51.114;13.780;2024-03-29T12:08:41;15.60;1.00
573;DHT22;271;51.114;13.780;2024-03-29T12:11:29;15.60;1.00
573;DHT22;271;51.114;13.780;2024-03-29T12:14:19;15.60;1.00
573;DHT22;271;51.114;13.780;2024-03-29T12:17:11;15.60;1.00
573;DHT22;271;51.114;13.780;2024-03-29T12:20:00;15.60;1.00
573;DHT22;271;51.114;13.780;2024-03-29T12:22:52;15.60;1.00
573;DHT22;271;51.114;13.780;2024-03-29T12:25:40;15.60;1.00
573;DHT22;271;51.114;13.780;2024-03-29T12:28:29;15.50;1.00
573;DHT22;271;51.114;13.780;2024-03-29T12:31:35;15.50;1.00
573;DHT22;271;51.114;13.780;2024-03-29T12:34:26;15.60;1.00
573;DHT22;271;51.114;13.780;2024-03-29T12:37:16;15.60;1.00
573;DHT22;271;51.114;13.780;2024-03-29T12:40:05;15.60;1.00
573;DHT22;271;51.114;13.780;2024-03-29T12:42:58;15.60;1.00
573;DHT22;271;51.114;13.780;2024-03-29T12:45:47;15.40;1.00
573;DHT22;271;51.114;13.780;2024-03-29T12:48:36;15.30;1.00
573;DHT22;271;51.114;13.780;2024-03-29T12:51:26;15.30;1.00
573;DHT22;271;51.114;13.780;2024-03-29T12:54:16;15.30;1.00
573;DHT22;271;51.114;13.780;2024-03-29T12:57:05;15.40;1.00
573;DHT22;271;51.114;13.780;2024-03-29T12:59:53;15.50;1.00
573;DHT22;271;51.114;13.780;2024-03-29T13:02:40;15.50;1.00
573;DHT22;271;51.114;13.780;2024-03-29T13:05:28;15.60;1.00
573;DHT22;271;51.114;13.780;2024-03-29T13:08:20;15.70;1.00
573;DHT22;271;51.114;13.780;2024-03-29T13:11:09;15.80;1.00
573;DHT22;271;51.114;13.780;2024-03-29T13:13:57;15.70;1.00
573;DHT22;271;51.114;13.780;2024-03-29T13:16:45;15.80;1.00
573;DHT22;271;51.114;13.780;2024-03-29T13:19:33;15.90;1.00
573;DHT22;271;51.114;13.780;2024-03-29T13:22:20;15.80;1.00
573;DHT22;271;51.114;13.780;2024-03-29T13:25:08;15.90;1.00
573;DHT22;271;51.114;13.780;2024-03-29T13:27:58;15.80;1.00
573;DHT22;271;51.114;13.780;2024-03-29T13:30:46;15.80;1.00
573;DHT22;271;51.114;13.780;2024-03-29T13:33:36;15.80;1.00
573;DHT22;271;51.114;13.780;2024-03-29T13:36:25;15.90;1.00
573;DHT22;271;51.114;13.780;2024-03-29T13:39:13;16.00;1.00
573;DHT22;271;51.114;13.780;2024-03-29T13:42:01;15.90;1.00
573;DHT22;271;51.114;13.780;2024-03-29T13:44:51;16.10;1.00
573;DHT22;271;51.114;13.780;2024-03-29T13:47:41;16.10;1.00
573;DHT22;271;51.114;13.780;2024-03-29T13:50:33;16.20;1.00
573;DHT22;271;51.114;13.780;2024-03-29T13:53:20;16.10;1.00
573;DHT22;271;51.114;13.780;2024-03-29T13:56:16;16.30;1.00
573;DHT22;271;51.114;13.780;2024-03-29T14:02:24;16.30;1.00
573;DHT22;271;51.114;13.780;2024-03-29T14:05:13;16.30;1.00
573;DHT22;271;51.114;13.780;2024-03-29T14:08:01;16.30;1.00
573;DHT22;271;51.114;13.780;2024-03-29T14:10:49;16.20;1.00
573;DHT22;271;51.114;13.780;2024-03-29T14:13:39;16.30;1.00
573;DHT22;271;51.114;13.780;2024-03-29T14:16:27;16.30;1.00
573;DHT22;271;51.114;13.780;2024-03-29T14:19:16;16.30;1.00
573;DHT22;271;51.114;13.780;2024-03-29T14:22:04;16.30;1.00
573;DHT22;271;51.114;13.780;2024-03-29T14:24:52;16.30;1.00
573;DHT22;271;51.114;13.780;2024-03-29T14:27:39;16.30;1.00
573;DHT22;271;51.114;13.780;2024-03-29T14:30:33;16.30;1.00
573;DHT22;271;51.114;13.780;2024-03-29T14:33:21;16.40;1.00
573;DHT22;271;51.114;13.780;2024-03-29T14:36:10;16.50;1.00
573;DHT22;271;51.114;13.780;2024-03-29T14:38:58;16.10;1.00
573;DHT22;271;51.114;13.780;2024-03-29T14:41:47;16.30;1.00
573;DHT22;271;51.114;13.780;2024-03-29T14:44:36;16.30;1.00
573;DHT22;271;51.114;13.780;2024-03-29T14:47:24;16.20;1.00
573;DHT22;271;51.114;13.780;2024-03-29T14:50:12;16.30;1.00
573;DHT22;271;51.114;13.780;2024-03-29T14:53:03;16.20;1.00
573;DHT22;271;51.114;13.780;2024-03-29T14:55:51;16.30;1.00
573;DHT22;271;51.114;13.780;2024-03-29T14:58:38;16.30;1.00
573;DHT22;271;51.114;13.780;2024-03-29T15:01:26;16.30;1.00
573;DHT22;271;51.114;13.780;2024-03-29T15:04:14;16.30;1.00
573;DHT22;271;51.114;13.780;2024-03-29T15:07:05;16.30;1.00
573;DHT22;271;51.114;13.780;2024-03-29T15:09:55;16.20;1.00
573;DHT22;271;51.114;13.780;2024-03-29T15:12:43;16.10;1.00
573;DHT22;271;51.114;13.780;2024-03-29T15:15:32;16.10;1.00
573;DHT22;271;51.114;13.780;2024-03-29T15:18:23;16.10;1.00
573;DHT22;271;51.114;13.780;2024-03-29T15:21:11;16.10;1.00
573;DHT22;271;51.114;13.780;2024-03-29T15:23:58;16.10;1.00
573;DHT22;271;51.114;13.780;2024-03-29T15:26:48;16.00;1.00
573;DHT22;271;51.114;13.780;2024-03-29T15:29:37;16.10;1.00
573;DHT22;271;51.114;13.780;2024-03-29T15:32:24;16.00;1.00
573;DHT22;271;51.114;13.780;2024-03-29T15:35:17;16.00;1.00
573;DHT22;271;51.114;13.780;2024-03-29T15:38:05;16.00;1.00
573;DHT22;271;51.114;13.780;2024-03-29T15:40:58;15.90;1.00
573;DHT22;271;51.114;13.780;2024-03-29T15:43:47;15.90;1.00
573;DHT22;271;51.114;13.780;2024-03-29T15:46:35;16.00;1.00
573;DHT22;271;51.114;13.780;2024-03-29T15:49:23;15.90;1.00
573;DHT22;271;51.114;13.780;2024-03-29T15:52:11;15.90;1.00
573;DHT22;271;51.114;13.780;2024-03-29T15:54:59;16.00;1.00
573;DHT22;271;51.114;13.780;2024-03-29T15:57:46;16.00;1.00
573;DHT22;271;51.114;13.780;2024-03-29T16:00:35;15.90;1.00
573;DHT22;271;51.114;13.780;2024-03-29T16:03:29;16.00;1.00
573;DHT22;271;51.114;13.780;2024-03-29T16:06:17;15.90;1.00
573;DHT22;271;51.114;13.780;2024-03-29T16:09:04;16.00;1.00
573;DHT22;271;51.114;13.780;2024-03-29T16:11:52;15.90;1.00
573;DHT22;271;51.114;13.780;2024-03-29T16:14:40;15.90;1.00
573;DHT22;271;51.114;13.780;2024-03-29T16:17:29;15.90;1.00
573;DHT22;271;51.114;13.780;2024-03-29T16:20:17;15.90;1.00
573;DHT22;271;51.114;13.780;2024-03-29T16:23:04;15.90;1.00
573;DHT22;271;51.114;13.780;2024-03-29T16:25:52;16.00;1.00
573;DHT22;271;51.114;13.780;2024-03-29T16:28:40;16.00;1.00
573;DHT22;271;51.114;13.780;2024-03-29T16:31:30;16.10;1.00
573;DHT22;271;51.114;13.780;2024-03-29T16:34:19;16.00;1.00
573;DHT22;271;51.114;13.780;2024-03-29T16:37:08;16.00;1.00
573;DHT22;271;51.114;13.780;2024-03-29T16:39:55;16.00;1.00
573;DHT22;271;51.114;13.780;2024-03-29T16:42:45;16.00;1.00
573;DHT22;271;51.114;13.780;2024-03-29T16:45:33;15.90;1.00
573;DHT22;271;51.114;13.780;2024-03-29T16:48:23;15.80;1.00
573;DHT22;271;51.114;13.780;2024-03-29T16:51:11;15.80;1.00
573;DHT22;271;51.114;13.780;2024-03-29T16:54:02;15.70;1.00
573;DHT22;271;51.114;13.780;2024-03-29T16:56:48;15.50;1.00
573;DHT22;271;51.114;13.780;2024-03-29T16:59:39;15.50;1.00
573;DHT22;271;51.114;13.780;2024-03-29T17:02:26;15.40;1.00
573;DHT22;271;51.114;13.780;2024-03-29T17:05:17;15.20;1.00
573;DHT22;271;51.114;13.780;2024-03-29T17:08:05;15.10;1.00
573;DHT22;271;51.114;13.780;2024-03-29T17:10:55;15.00;1.00
573;DHT22;271;51.114;13.780;2024-03-29T17:13:41;14.90;1.00
573;DHT22;271;51.114;13.780;2024-03-29T17:16:34;14.80;1.00
573;DHT22;271;51.114;13.780;2024-03-29T17:19:22;14.70;1.00
573;DHT22;271;51.114;13.780;2024-03-29T17:22:10;14.60;1.00
573;DHT22;271;51.114;13.780;2024-03-29T17:24:58;14.50;1.00
573;DHT22;271;51.114;13.780;2024-03-29T17:27:46;14.40;1.00
573;DHT22;271;51.114;13.780;2024-03-29T17:30:32;14.30;1.00
573;DHT22;271;51.114;13.780;2024-03-29T17:33:20;14.20;1.00
573;DHT22;271;51.114;13.780;2024-03-29T17:36:07;14.10;1.00
573;DHT22;271;51.114;13.780;2024-03-29T17:38:55;14.10;1.00
573;DHT22;271;51.114;13.780;2024-03-29T17:41:45;14.00;1.00
573;DHT22;271;51.114;13.780;2024-03-29T17:44:32;14.00;1.00
573;DHT22;271;51.114;13.780;2024-03-29T17:47:19;13.90;1.00
573;DHT22;271;51.114;13.780;2024-03-29T17:50:07;13.90;1.00
573;DHT22;271;51.114;13.780;2024-03-29T17:52:55;13.80;1.00
573;DHT22;271;51.114;13.780;2024-03-29T17:55:43;13.70;1.00
573;DHT22;271;51.114;13.780;2024-03-29T17:58:31;13.60;1.00
573;DHT22;271;51.114;13.780;2024-03-29T18:01:19;13.70;1.00
573;DHT22;271;51.114;13.780;2024-03-29T18:04:06;13.80;1.00
573;DHT22;271;51.114;13.780;2024-03-29T18:06:54;13.60;1.00
573;DHT22;271;51.114;13.780;2024-03-29T18:09:40;13.60;1.00
573;DHT22;271;51.114;13.780;2024-03-29T18:12:29;13.50;1.00
573;DHT22;271;51.114;13.780;2024-03-29T18:15:17;13.40;1.00
573;DHT22;271;51.114;13.780;2024-03-29T18:18:04;13.30;1.00
573;DHT22;271;51.114;13.780;2024-03-29T18:20:51;13.20;1.00
573;DHT22;271;51.114;13.780;2024-03-29T18:23:39;13.10;1.00
573;DHT22;271;51.114;13.780;2024-03-29T18:26:26;13.00;1.00
573;DHT22;271;51.114;13.780;2024-03-29T18:29:14;12.90;1.00
573;DHT22;271;51.114;13.780;2024-03-29T18:32:02;12.90;1.00
573;DHT22;271;51.114;13.780;2024-03-29T18:34:50;12.80;1.00
573;DHT22;271;51.114;13.780;2024-03-29T18:37:37;12.80;1.00
573;DHT22;271;51.114;13.780;2024-03-29T18:40:24;12.70;1.00
573;DHT22;271;51.114;13.780;2024-03-29T18:43:11;12.70;1.00
573;DHT22;271;51.114;13.780;2024-03-29T18:46:03;12.70;1.00
573;DHT22;271;51.114;13.780;2024-03-29T18:48:51;12.60;1.00
573;DHT22;271;51.114;13.780;2024-03-29T18:51:39;12.70;1.00
573;DHT22;271;51.114;13.780;2024-03-29T18:54:26;12.80;1.00
573;DHT22;271;51.114;13.780;2024-03-29T18:57:13;12.90;1.00
573;DHT22;271;51.114;13.780;2024-03-29T19:00:00;13.10;1.00
573;DHT22;271;51.114;13.780;2024-03-29T19:02:48;13.30;1.00
573;DHT22;271;51.114;13.780;2024-03-29T19:05:36;13.30;1.00
573;DHT22;271;51.114;13.780;2024-03-29T19:08:24;13.30;1.00
573;DHT22;271;51.114;13.780;2024-03-29T19:11:11;13.30;1.00
573;DHT22;271;51.114;13.780;2024-03-29T19:13:59;13.30;1.00
573;DHT22;271;51.114;13.780;2024-03-29T19:16:45;13.10;1.00
573;DHT22;271;51.114;13.780;2024-03-29T19:19:33;13.00;1.00
573;DHT22;271;51.114;13.780;2024-03-29T19:22:22;13.00;1.00
573;DHT22;271;51.114;13.780;2024-03-29T19:25:10;12.90;1.00
573;DHT22;271;51.114;13.780;2024-03-29T19:27:57;13.00;1.00
573;DHT22;271;51.114;13.780;2024-03-29T19:30:45;12.90;1.00
573;DHT22;271;51.114;13.780;2024-03-29T19:33:32;12.90;1.00
573;DHT22;271;51.114;13.780;2024-03-29T19:36:20;12.80;1.00
573;DHT22;271;51.114;13.780;2024-03-29T19:39:08;12.70;1.00
573;DHT22;271;51.114;13.780;2024-03-29T19:41:57;12.70;1.00
573;DHT22;271;51.114;13.780;2024-03-29T19:44:46;12.60;1.00
573;DHT22;271;51.114;13.780;2024-03-29T19:47:34;12.70;1.00
573;DHT22;271;51.114;13.780;2024-03-29T19:50:21;12.50;1.00
573;DHT22;271;51.114;13.780;2024-03-29T19:53:09;12.40;1.00
573;DHT22;271;51.114;13.780;2024-03-29T19:55:57;12.40;1.00
573;DHT22;271;51.114;13.780;2024-03-29T19:58:45;12.20;1.00
573;DHT22;271;51.114;13.780;2024-03-29T20:01:32;12.20;1.00
573;DHT22;271;51.114;13.780;2024-03-29T20:04:19;12.20;1.00